PWSweather.com
Personal Weather Stations
Station Observations
SANDHURSTWX
SandhurstGB

SandhurstGB

Lat: 51.3522, Lon: -0.7739

Elevation: 272.3

Station Type: Davis VP2

www.sandhurstweather.org.uk

High Low Average
Temperature 78.3°F25.7°C 49.6°F9.8°C 63.2°F17.3°C
Dew Point 55.2°F12.9°C 44.3°F6.8°C 51.0°F10.6°C
Winds 8.1 mph 13.0 kmh Calm Calm 3.0 mph ESE4.8 kmh ESE
Wind Gusts 15.0 mph24.1 kmh 1.2 mph1.9 kmh 6.0 mph9.7 kmh
Humidity 82% 42% 66%
Pressure 30.05 in1017.6 mb 29.70 in1005.8 mb -
Precipitation 0.00 in0.0 mm - -
Hour Temp Dew Point Humidity Winds Wind Gusts Pressure Precip Precip Rate Daily Precip Total
12:00 AM 54.9°F12.7°C 48.5°F9.2°C 79% 2.3 mph E3.7 kmh E 3.5 mph5.6 kmh 30.05 in1017.6 mb - 0.00 in0.0 mm 0.00 in0.0 mm
01:00 AM 53.7°F12.1°C 47.7°F8.7°C 80% 4.6 mph ESE7.4 kmh ESE 5.8 mph9.3 kmh 30.03 in1016.9 mb - 0.00 in0.0 mm 0.00 in0.0 mm
02:00 AM 53.4°F11.9°C 46.7°F8.2°C 78% 3.5 mph ENE5.6 kmh ENE 4.6 mph7.4 kmh 30.00 in1015.9 mb - 0.00 in0.0 mm 0.00 in0.0 mm
03:00 AM 52.7°F11.5°C 46.0°F7.8°C 78% Calm Calm 1.2 mph1.9 kmh 29.98 in1015.2 mb - 0.00 in0.0 mm 0.00 in0.0 mm
04:00 AM 50.9°F10.5°C 44.7°F7.1°C 79% Calm Calm 2.3 mph3.7 kmh 29.97 in1014.9 mb - 0.00 in0.0 mm 0.00 in0.0 mm
05:00 AM 49.9°F9.9°C 44.3°F6.8°C 81% 1.2 mph ESE1.9 kmh ESE 3.5 mph5.6 kmh 29.95 in1014.2 mb - 0.00 in0.0 mm 0.00 in0.0 mm
06:00 AM 49.6°F9.8°C 44.3°F6.8°C 82% 2.3 mph E3.7 kmh E 4.6 mph7.4 kmh 29.95 in1014.2 mb - 0.00 in0.0 mm 0.00 in0.0 mm
07:00 AM 51.2°F10.7°C 45.6°F7.6°C 81% 2.3 mph E3.7 kmh E 8.1 mph13.0 kmh 29.94 in1013.9 mb - 0.00 in0.0 mm 0.00 in0.0 mm
08:00 AM 55.7°F13.2°C 48.2°F9.0°C 76% 3.5 mph E5.6 kmh E 4.6 mph7.4 kmh 29.93 in1013.5 mb - 0.00 in0.0 mm 0.00 in0.0 mm
09:00 AM 62.6°F17.0°C 50.7°F10.4°C 65% 4.6 mph SSE7.4 kmh SSE 9.2 mph14.8 kmh 29.92 in1013.2 mb - 0.00 in0.0 mm 0.00 in0.0 mm
10:00 AM 66.5°F19.2°C 51.8°F11.0°C 59% 2.3 mph E3.7 kmh E 8.1 mph13.0 kmh 29.90 in1012.5 mb - 0.00 in0.0 mm 0.00 in0.0 mm
11:00 AM 69.8°F21.0°C 52.4°F11.3°C 54% 1.2 mph ESE1.9 kmh ESE 4.6 mph7.4 kmh 29.87 in1011.5 mb - 0.00 in0.0 mm 0.00 in0.0 mm
12:00 PM 73.2°F22.9°C 54.0°F12.2°C 51% 5.8 mph E9.3 kmh E 12.7 mph20.4 kmh 29.85 in1010.8 mb - 0.00 in0.0 mm 0.00 in0.0 mm
01:00 PM 75.4°F24.1°C 54.3°F12.4°C 48% 5.8 mph SSE9.3 kmh SSE 12.7 mph20.4 kmh 29.83 in1010.2 mb - 0.00 in0.0 mm 0.00 in0.0 mm
02:00 PM 77.1°F25.1°C 54.8°F12.7°C 46% 8.1 mph SSE13.0 kmh SSE 15.0 mph24.1 kmh 29.81 in1009.5 mb - 0.00 in0.0 mm 0.00 in0.0 mm
03:00 PM 77.0°F25.0°C 55.2°F12.9°C 47% 5.8 mph S9.3 kmh S 10.4 mph16.7 kmh 29.80 in1009.1 mb - 0.00 in0.0 mm 0.00 in0.0 mm
04:00 PM 78.3°F25.7°C 53.3°F11.8°C 42% 3.5 mph SE5.6 kmh SE 4.6 mph7.4 kmh 29.78 in1008.5 mb - 0.00 in0.0 mm 0.00 in0.0 mm
05:00 PM 74.0°F23.3°C 54.7°F12.6°C 51% 8.1 mph S13.0 kmh S 10.4 mph16.7 kmh 29.77 in1008.1 mb - 0.00 in0.0 mm 0.00 in0.0 mm
06:00 PM 69.9°F21.1°C 54.9°F12.7°C 59% 2.3 mph SE3.7 kmh SE 9.2 mph14.8 kmh 29.76 in1007.8 mb - 0.00 in0.0 mm 0.00 in0.0 mm
07:00 PM 66.8°F19.3°C 54.6°F12.6°C 65% 1.2 mph E1.9 kmh E 4.6 mph7.4 kmh 29.76 in1007.8 mb - 0.00 in0.0 mm 0.00 in0.0 mm
08:00 PM 65.2°F18.4°C 54.0°F12.2°C 67% 1.2 mph ENE1.9 kmh ENE 3.5 mph5.6 kmh 29.75 in1007.5 mb - 0.00 in0.0 mm 0.00 in0.0 mm
09:00 PM 64.2°F17.9°C 54.2°F12.3°C 70% 3.5 mph ENE5.6 kmh ENE 4.6 mph7.4 kmh 29.73 in1006.8 mb - 0.00 in0.0 mm 0.00 in0.0 mm
10:00 PM 62.9°F17.2°C 54.1°F12.3°C 73% 1.2 mph ESE1.9 kmh ESE 3.5 mph5.6 kmh 29.72 in1006.4 mb - 0.00 in0.0 mm 0.00 in0.0 mm
11:00 PM 62.8°F17.1°C 54.4°F12.4°C 74% 1.2 mph ESE1.9 kmh ESE 3.5 mph5.6 kmh 29.70 in1005.8 mb - 0.00 in0.0 mm 0.00 in0.0 mm